sensor_id;sensor_type;location;lat;lon;timestamp;temperature;humidity
44121;DHT22;29783;52.504;13.478;2022-08-11T00:00:10;19.00;57.10
44121;DHT22;29783;52.504;13.478;2022-08-11T00:02:49;19.00;57.30
44121;DHT22;29783;52.504;13.478;2022-08-11T00:05:19;19.00;57.20
44121;DHT22;29783;52.504;13.478;2022-08-11T00:07:51;19.00;57.10
44121;DHT22;29783;52.504;13.478;2022-08-11T00:10:26;19.00;57.10
44121;DHT22;29783;52.504;13.478;2022-08-11T00:12:53;18.90;56.90
44121;DHT22;29783;52.504;13.478;2022-08-11T00:15:21;18.90;57.10
44121;DHT22;29783;52.504;13.478;2022-08-11T00:17:48;18.80;57.30
44121;DHT22;29783;52.504;13.478;2022-08-11T00:20:15;18.80;57.20
44121;DHT22;29783;52.504;13.478;2022-08-11T00:22:43;18.80;57.40
44121;DHT22;29783;52.504;13.478;2022-08-11T00:25:17;18.70;57.60
44121;DHT22;29783;52.504;13.478;2022-08-11T00:27:45;18.60;57.60
44121;DHT22;29783;52.504;13.478;2022-08-11T00:30:12;18.50;57.90
44121;DHT22;29783;52.504;13.478;2022-08-11T00:32:41;18.50;58.10
44121;DHT22;29783;52.504;13.478;2022-08-11T00:35:12;18.50;58.30
44121;DHT22;29783;52.504;13.478;2022-08-11T00:37:38;18.40;58.30
44121;DHT22;29783;52.504;13.478;2022-08-11T00:40:16;18.40;58.60
44121;DHT22;29783;52.504;13.478;2022-08-11T00:45:45;18.20;59.20
44121;DHT22;29783;52.504;13.478;2022-08-11T00:48:27;18.20;59.20
44121;DHT22;29783;52.504;13.478;2022-08-11T00:51:24;18.20;59.50
44121;DHT22;29783;52.504;13.478;2022-08-11T00:54:25;18.20;59.80
44121;DHT22;29783;52.504;13.478;2022-08-11T01:07:59;18.30;59.30
44121;DHT22;29783;52.504;13.478;2022-08-11T01:25:43;18.00;60.70
44121;DHT22;29783;52.504;13.478;2022-08-11T01:37:12;18.00;60.50
44121;DHT22;29783;52.504;13.478;2022-08-11T01:46:00;17.80;61.40
44121;DHT22;29783;52.504;13.478;2022-08-11T01:51:24;17.70;61.60
44121;DHT22;29783;52.504;13.478;2022-08-11T01:59:38;17.50;62.40
44121;DHT22;29783;52.504;13.478;2022-08-11T02:05:36;17.40;62.60
44121;DHT22;29783;52.504;13.478;2022-08-11T02:14:10;17.40;62.90
44121;DHT22;29783;52.504;13.478;2022-08-11T02:17:12;17.30;63.00
44121;DHT22;29783;52.504;13.478;2022-08-11T02:22:53;17.30;63.30
44121;DHT22;29783;52.504;13.478;2022-08-11T02:26:01;17.30;63.30
44121;DHT22;29783;52.504;13.478;2022-08-11T02:31:23;17.20;63.70
44121;DHT22;29783;52.504;13.478;2022-08-11T02:34:31;17.20;64.10
44121;DHT22;29783;52.504;13.478;2022-08-11T02:37:25;17.10;64.10
44121;DHT22;29783;52.504;13.478;2022-08-11T02:40:08;17.00;64.40
44121;DHT22;29783;52.504;13.478;2022-08-11T02:45:36;16.90;65.20
44121;DHT22;29783;52.504;13.478;2022-08-11T02:59:48;16.80;65.50
44121;DHT22;29783;52.504;13.478;2022-08-11T03:13:16;16.60;66.20
44121;DHT22;29783;52.504;13.478;2022-08-11T03:21:47;16.50;66.70
44121;DHT22;29783;52.504;13.478;2022-08-11T03:30:13;16.40;67.10
44121;DHT22;29783;52.504;13.478;2022-08-11T03:36:04;16.40;67.10
44121;DHT22;29783;52.504;13.478;2022-08-11T03:38:59;16.30;67.40
44121;DHT22;29783;52.504;13.478;2022-08-11T03:41:39;16.30;67.50
44121;DHT22;29783;52.504;13.478;2022-08-11T03:44:38;16.40;67.40
44121;DHT22;29783;52.504;13.478;2022-08-11T03:50:06;16.30;67.70
44121;DHT22;29783;52.504;13.478;2022-08-11T03:58:23;16.30;67.90
44121;DHT22;29783;52.504;13.478;2022-08-11T04:26:46;16.60;67.10
44121;DHT22;29783;52.504;13.478;2022-08-11T04:29:34;16.70;67.00
44121;DHT22;29783;52.504;13.478;2022-08-11T04:55:06;17.00;66.00
44121;DHT22;29783;52.504;13.478;2022-08-11T05:00:55;17.20;65.60
44121;DHT22;29783;52.504;13.478;2022-08-11T05:14:40;17.40;65.00
44121;DHT22;29783;52.504;13.478;2022-08-11T05:17:43;17.50;64.70
44121;DHT22;29783;52.504;13.478;2022-08-11T05:20:28;17.50;64.60
44121;DHT22;29783;52.504;13.478;2022-08-11T05:23:13;17.70;64.50
44121;DHT22;29783;52.504;13.478;2022-08-11T05:25:58;17.70;64.30
44121;DHT22;29783;52.504;13.478;2022-08-11T05:28:53;17.70;64.10
44121;DHT22;29783;52.504;13.478;2022-08-11T05:31:40;17.80;63.70
44121;DHT22;29783;52.504;13.478;2022-08-11T05:34:43;18.00;63.20
44121;DHT22;29783;52.504;13.478;2022-08-11T05:37:21;18.10;63.10
44121;DHT22;29783;52.504;13.478;2022-08-11T05:39:49;18.20;63.00
44121;DHT22;29783;52.504;13.478;2022-08-11T05:42:38;18.30;62.90
44121;DHT22;29783;52.504;13.478;2022-08-11T05:45:25;18.30;62.90
44121;DHT22;29783;52.504;13.478;2022-08-11T05:48:10;18.40;62.50
44121;DHT22;29783;52.504;13.478;2022-08-11T05:50:56;18.50;61.80
44121;DHT22;29783;52.504;13.478;2022-08-11T05:53:55;18.60;61.40
44121;DHT22;29783;52.504;13.478;2022-08-11T05:56:48;18.70;61.30
44121;DHT22;29783;52.504;13.478;2022-08-11T05:59:17;18.80;61.10
44121;DHT22;29783;52.504;13.478;2022-08-11T06:01:44;18.90;61.00
44121;DHT22;29783;52.504;13.478;2022-08-11T06:04:19;19.00;61.00
44121;DHT22;29783;52.504;13.478;2022-08-11T06:06:49;19.10;60.60
44121;DHT22;29783;52.504;13.478;2022-08-11T06:09:25;19.20;60.40
44121;DHT22;29783;52.504;13.478;2022-08-11T06:11:52;19.20;59.90
44121;DHT22;29783;52.504;13.478;2022-08-11T06:14:19;19.30;59.70
44121;DHT22;29783;52.504;13.478;2022-08-11T06:16:48;19.40;59.70
44121;DHT22;29783;52.504;13.478;2022-08-11T06:19:15;19.50;59.50
44121;DHT22;29783;52.504;13.478;2022-08-11T06:21:45;19.50;59.30
44121;DHT22;29783;52.504;13.478;2022-08-11T06:24:13;19.60;59.30
44121;DHT22;29783;52.504;13.478;2022-08-11T06:26:40;19.70;59.20
44121;DHT22;29783;52.504;13.478;2022-08-11T06:29:12;19.80;58.70
44121;DHT22;29783;52.504;13.478;2022-08-11T06:32:04;20.00;58.10
44121;DHT22;29783;52.504;13.478;2022-08-11T06:34:48;20.00;58.00
44121;DHT22;29783;52.504;13.478;2022-08-11T06:44:06;20.50;57.40
44121;DHT22;29783;52.504;13.478;2022-08-11T06:46:36;20.60;56.80
44121;DHT22;29783;52.504;13.478;2022-08-11T06:49:05;20.70;56.60
44121;DHT22;29783;52.504;13.478;2022-08-11T06:51:33;20.70;56.30
44121;DHT22;29783;52.504;13.478;2022-08-11T06:54:01;20.90;56.00
44121;DHT22;29783;52.504;13.478;2022-08-11T06:56:33;21.00;55.70
44121;DHT22;29783;52.504;13.478;2022-08-11T06:59:18;21.10;55.60
44121;DHT22;29783;52.504;13.478;2022-08-11T07:02:10;21.20;55.20
44121;DHT22;29783;52.504;13.478;2022-08-11T07:04:40;21.30;55.10
44121;DHT22;29783;52.504;13.478;2022-08-11T07:08:05;21.50;54.70
44121;DHT22;29783;52.504;13.478;2022-08-11T07:13:15;21.70;54.20
44121;DHT22;29783;52.504;13.478;2022-08-11T07:16:01;21.90;54.10
44121;DHT22;29783;52.504;13.478;2022-08-11T07:18:32;22.00;53.60
44121;DHT22;29783;52.504;13.478;2022-08-11T07:21:26;22.20;53.10
44121;DHT22;29783;52.504;13.478;2022-08-11T07:24:15;22.30;53.00
44121;DHT22;29783;52.504;13.478;2022-08-11T07:27:00;22.50;53.00
44121;DHT22;29783;52.504;13.478;2022-08-11T07:29:49;22.60;52.40
44121;DHT22;29783;52.504;13.478;2022-08-11T07:32:21;22.80;51.80
44121;DHT22;29783;52.504;13.478;2022-08-11T07:34:54;23.00;51.60
44121;DHT22;29783;52.504;13.478;2022-08-11T07:37:22;23.20;51.40
44121;DHT22;29783;52.504;13.478;2022-08-11T07:39:49;23.20;50.50
44121;DHT22;29783;52.504;13.478;2022-08-11T07:42:27;23.40;49.80
44121;DHT22;29783;52.504;13.478;2022-08-11T07:44:55;23.30;50.00
44121;DHT22;29783;52.504;13.478;2022-08-11T07:47:40;23.30;50.30
44121;DHT22;29783;52.504;13.478;2022-08-11T07:50:25;23.40;49.60
44121;DHT22;29783;52.504;13.478;2022-08-11T07:53:12;23.70;48.90
44121;DHT22;29783;52.504;13.478;2022-08-11T07:55:40;23.80;48.40
44121;DHT22;29783;52.504;13.478;2022-08-11T07:58:06;23.80;48.20
44121;DHT22;29783;52.504;13.478;2022-08-11T08:00:55;24.00;48.10
44121;DHT22;29783;52.504;13.478;2022-08-11T08:03:42;23.90;47.30
44121;DHT22;29783;52.504;13.478;2022-08-11T08:06:27;24.00;47.60
44121;DHT22;29783;52.504;13.478;2022-08-11T08:09:13;24.20;46.50
44121;DHT22;29783;52.504;13.478;2022-08-11T08:11:59;24.30;46.20
44121;DHT22;29783;52.504;13.478;2022-08-11T08:14:44;24.50;45.80
44121;DHT22;29783;52.504;13.478;2022-08-11T08:17:29;24.70;45.10
44121;DHT22;29783;52.504;13.478;2022-08-11T08:20:18;24.70;45.10
44121;DHT22;29783;52.504;13.478;2022-08-11T08:22:50;24.80;44.80
44121;DHT22;29783;52.504;13.478;2022-08-11T08:25:23;24.90;44.90
44121;DHT22;29783;52.504;13.478;2022-08-11T08:27:50;25.10;44.40
44121;DHT22;29783;52.504;13.478;2022-08-11T08:30:17;25.20;44.20
44121;DHT22;29783;52.504;13.478;2022-08-11T08:33:02;25.30;44.20
44121;DHT22;29783;52.504;13.478;2022-08-11T08:35:29;25.60;43.60
44121;DHT22;29783;52.504;13.478;2022-08-11T08:37:56;25.60;43.20
44121;DHT22;29783;52.504;13.478;2022-08-11T08:40:23;25.50;43.50
44121;DHT22;29783;52.504;13.478;2022-08-11T08:42:53;25.70;42.30
44121;DHT22;29783;52.504;13.478;2022-08-11T08:45:20;25.80;41.70
44121;DHT22;29783;52.504;13.478;2022-08-11T08:50:22;25.90;41.80
44121;DHT22;29783;52.504;13.478;2022-08-11T08:53:11;26.00;41.80
44121;DHT22;29783;52.504;13.478;2022-08-11T08:55:38;26.10;41.20
44121;DHT22;29783;52.504;13.478;2022-08-11T08:58:06;26.20;40.90
44121;DHT22;29783;52.504;13.478;2022-08-11T09:00:41;26.40;41.10
44121;DHT22;29783;52.504;13.478;2022-08-11T09:03:09;26.30;41.00
44121;DHT22;29783;52.504;13.478;2022-08-11T09:05:35;26.20;41.50
44121;DHT22;29783;52.504;13.478;2022-08-11T09:08:01;26.30;41.40
44121;DHT22;29783;52.504;13.478;2022-08-11T09:10:28;26.30;41.20
44121;DHT22;29783;52.504;13.478;2022-08-11T09:12:55;26.40;41.00
44121;DHT22;29783;52.504;13.478;2022-08-11T09:15:22;26.60;41.00
44121;DHT22;29783;52.504;13.478;2022-08-11T09:17:53;26.70;40.70
44121;DHT22;29783;52.504;13.478;2022-08-11T09:20:26;26.80;39.20
44121;DHT22;29783;52.504;13.478;2022-08-11T09:22:58;27.00;39.60
44121;DHT22;29783;52.504;13.478;2022-08-11T09:25:44;27.20;39.20
44121;DHT22;29783;52.504;13.478;2022-08-11T09:28:29;27.20;38.50
44121;DHT22;29783;52.504;13.478;2022-08-11T09:30:56;27.20;38.00
44121;DHT22;29783;52.504;13.478;2022-08-11T09:33:24;27.30;37.70
44121;DHT22;29783;52.504;13.478;2022-08-11T09:35:51;27.40;38.00
44121;DHT22;29783;52.504;13.478;2022-08-11T09:38:19;27.30;37.00
44121;DHT22;29783;52.504;13.478;2022-08-11T09:41:07;27.30;37.20
44121;DHT22;29783;52.504;13.478;2022-08-11T09:43:42;27.40;37.70
44121;DHT22;29783;52.504;13.478;2022-08-11T09:46:27;27.60;36.90
44121;DHT22;29783;52.504;13.478;2022-08-11T09:48:57;27.60;36.30
44121;DHT22;29783;52.504;13.478;2022-08-11T09:51:24;27.50;37.00
44121;DHT22;29783;52.504;13.478;2022-08-11T09:53:50;27.60;37.10
44121;DHT22;29783;52.504;13.478;2022-08-11T09:56:19;27.80;36.00
44121;DHT22;29783;52.504;13.478;2022-08-11T09:59:05;27.70;35.00
44121;DHT22;29783;52.504;13.478;2022-08-11T10:01:37;27.70;35.60
44121;DHT22;29783;52.504;13.478;2022-08-11T10:04:12;27.90;35.40
44121;DHT22;29783;52.504;13.478;2022-08-11T10:06:43;28.10;35.40
44121;DHT22;29783;52.504;13.478;2022-08-11T10:09:34;28.10;35.20
44121;DHT22;29783;52.504;13.478;2022-08-11T10:12:01;28.00;35.70
44121;DHT22;29783;52.504;13.478;2022-08-11T10:14:29;28.10;35.20
44121;DHT22;29783;52.504;13.478;2022-08-11T10:17:17;28.00;35.70
44121;DHT22;29783;52.504;13.478;2022-08-11T10:19:46;28.10;36.00
44121;DHT22;29783;52.504;13.478;2022-08-11T10:22:14;28.30;36.00
44121;DHT22;29783;52.504;13.478;2022-08-11T10:25:02;28.60;35.60
44121;DHT22;29783;52.504;13.478;2022-08-11T10:27:47;28.90;33.50
44121;DHT22;29783;52.504;13.478;2022-08-11T10:30:25;28.90;33.50
44121;DHT22;29783;52.504;13.478;2022-08-11T10:33:11;28.70;33.50
44121;DHT22;29783;52.504;13.478;2022-08-11T10:35:57;29.10;33.80
44121;DHT22;29783;52.504;13.478;2022-08-11T10:38:24;29.20;33.50
44121;DHT22;29783;52.504;13.478;2022-08-11T10:40:51;29.40;33.60
44121;DHT22;29783;52.504;13.478;2022-08-11T10:43:38;29.50;33.40
44121;DHT22;29783;52.504;13.478;2022-08-11T10:46:08;29.60;33.10
44121;DHT22;29783;52.504;13.478;2022-08-11T10:48:54;29.50;33.00
44121;DHT22;29783;52.504;13.478;2022-08-11T10:51:23;29.40;32.60
44121;DHT22;29783;52.504;13.478;2022-08-11T10:54:08;29.40;33.20
44121;DHT22;29783;52.504;13.478;2022-08-11T10:56:53;29.40;32.50
44121;DHT22;29783;52.504;13.478;2022-08-11T10:59:39;29.50;32.50
44121;DHT22;29783;52.504;13.478;2022-08-11T11:02:11;29.40;32.60
44121;DHT22;29783;52.504;13.478;2022-08-11T11:07:49;29.40;32.70
44121;DHT22;29783;52.504;13.478;2022-08-11T11:10:17;29.60;32.50
44121;DHT22;29783;52.504;13.478;2022-08-11T11:12:45;29.80;32.00
44121;DHT22;29783;52.504;13.478;2022-08-11T11:15:33;30.00;32.00
44121;DHT22;29783;52.504;13.478;2022-08-11T11:18:21;29.90;32.00
44121;DHT22;29783;52.504;13.478;2022-08-11T11:21:12;30.00;30.90
44121;DHT22;29783;52.504;13.478;2022-08-11T11:23:42;30.00;30.90
44121;DHT22;29783;52.504;13.478;2022-08-11T11:35:21;30.10;31.40
44121;DHT22;29783;52.504;13.478;2022-08-11T11:37:51;30.20;31.10
44121;DHT22;29783;52.504;13.478;2022-08-11T11:40:19;30.20;30.20
44121;DHT22;29783;52.504;13.478;2022-08-11T11:42:49;30.20;30.40
44121;DHT22;29783;52.504;13.478;2022-08-11T11:45:17;30.40;30.60
44121;DHT22;29783;52.504;13.478;2022-08-11T11:47:44;30.60;30.00
44121;DHT22;29783;52.504;13.478;2022-08-11T11:50:11;30.60;29.00
44121;DHT22;29783;52.504;13.478;2022-08-11T11:52:38;30.60;29.50
44121;DHT22;29783;52.504;13.478;2022-08-11T11:55:06;30.60;28.90
44121;DHT22;29783;52.504;13.478;2022-08-11T11:57:33;30.60;28.80
44121;DHT22;29783;52.504;13.478;2022-08-11T12:00:18;30.50;29.10
44121;DHT22;29783;52.504;13.478;2022-08-11T12:03:06;30.70;29.10
44121;DHT22;29783;52.504;13.478;2022-08-11T12:05:35;30.80;29.30
44121;DHT22;29783;52.504;13.478;2022-08-11T12:08:02;31.00;28.70
44121;DHT22;29783;52.504;13.478;2022-08-11T12:10:37;31.10;27.70
44121;DHT22;29783;52.504;13.478;2022-08-11T12:13:03;31.30;27.60
44121;DHT22;29783;52.504;13.478;2022-08-11T12:15:49;31.50;28.40
44121;DHT22;29783;52.504;13.478;2022-08-11T12:18:17;31.40;27.90
44121;DHT22;29783;52.504;13.478;2022-08-11T12:20:44;31.80;27.30
44121;DHT22;29783;52.504;13.478;2022-08-11T12:23:13;32.30;26.70
44121;DHT22;29783;52.504;13.478;2022-08-11T12:25:58;33.10;25.80
44121;DHT22;29783;52.504;13.478;2022-08-11T12:28:44;33.90;25.00
44121;DHT22;29783;52.504;13.478;2022-08-11T12:31:10;35.30;23.60
44121;DHT22;29783;52.504;13.478;2022-08-11T12:33:37;35.70;23.50
44121;DHT22;29783;52.504;13.478;2022-08-11T12:36:07;36.10;22.90
44121;DHT22;29783;52.504;13.478;2022-08-11T12:38:34;35.90;23.00
44121;DHT22;29783;52.504;13.478;2022-08-11T12:41:01;36.50;22.50
44121;DHT22;29783;52.504;13.478;2022-08-11T12:43:46;37.10;21.50
44121;DHT22;29783;52.504;13.478;2022-08-11T12:46:33;38.80;20.60
44121;DHT22;29783;52.504;13.478;2022-08-11T12:49:13;39.10;19.80
44121;DHT22;29783;52.504;13.478;2022-08-11T12:52:04;39.70;19.40
44121;DHT22;29783;52.504;13.478;2022-08-11T12:54:34;40.40;19.20
44121;DHT22;29783;52.504;13.478;2022-08-11T12:57:14;40.10;19.60
44121;DHT22;29783;52.504;13.478;2022-08-11T13:00:06;39.90;19.60
44121;DHT22;29783;52.504;13.478;2022-08-11T13:02:51;39.70;19.80
44121;DHT22;29783;52.504;13.478;2022-08-11T13:05:37;40.10;19.40
44121;DHT22;29783;52.504;13.478;2022-08-11T13:08:03;40.70;18.60
44121;DHT22;29783;52.504;13.478;2022-08-11T13:10:31;40.10;19.00
44121;DHT22;29783;52.504;13.478;2022-08-11T13:13:17;40.20;19.00
44121;DHT22;29783;52.504;13.478;2022-08-11T13:15:46;40.00;19.30
44121;DHT22;29783;52.504;13.478;2022-08-11T13:18:18;39.70;19.60
44121;DHT22;29783;52.504;13.478;2022-08-11T13:20:50;39.50;19.60
44121;DHT22;29783;52.504;13.478;2022-08-11T13:23:17;39.10;19.70
44121;DHT22;29783;52.504;13.478;2022-08-11T13:25:44;38.90;20.10
44121;DHT22;29783;52.504;13.478;2022-08-11T13:28:10;39.60;18.80
44121;DHT22;29783;52.504;13.478;2022-08-11T13:30:37;39.10;19.40
44121;DHT22;29783;52.504;13.478;2022-08-11T13:33:24;39.50;19.30
44121;DHT22;29783;52.504;13.478;2022-08-11T13:35:53;39.50;19.30
44121;DHT22;29783;52.504;13.478;2022-08-11T13:38:22;39.00;19.40
44121;DHT22;29783;52.504;13.478;2022-08-11T13:40:51;39.80;18.80
44121;DHT22;29783;52.504;13.478;2022-08-11T13:43:19;40.60;18.10
44121;DHT22;29783;52.504;13.478;2022-08-11T13:45:46;40.90;17.80
44121;DHT22;29783;52.504;13.478;2022-08-11T13:48:14;40.30;17.60
44121;DHT22;29783;52.504;13.478;2022-08-11T13:50:40;40.10;17.60
44121;DHT22;29783;52.504;13.478;2022-08-11T13:53:26;40.10;17.90
44121;DHT22;29783;52.504;13.478;2022-08-11T13:55:54;41.10;16.90
44121;DHT22;29783;52.504;13.478;2022-08-11T13:58:22;40.60;17.70
44121;DHT22;29783;52.504;13.478;2022-08-11T14:00:49;40.50;17.60
44121;DHT22;29783;52.504;13.478;2022-08-11T14:03:20;40.80;17.20
44121;DHT22;29783;52.504;13.478;2022-08-11T14:05:50;41.60;16.60
44121;DHT22;29783;52.504;13.478;2022-08-11T14:08:22;40.80;17.10
44121;DHT22;29783;52.504;13.478;2022-08-11T14:10:49;40.60;17.10
44121;DHT22;29783;52.504;13.478;2022-08-11T14:13:40;41.10;17.40
44121;DHT22;29783;52.504;13.478;2022-08-11T14:16:10;41.00;17.00
44121;DHT22;29783;52.504;13.478;2022-08-11T14:18:43;41.80;16.20
44121;DHT22;29783;52.504;13.478;2022-08-11T14:21:14;41.50;16.60
44121;DHT22;29783;52.504;13.478;2022-08-11T14:24:00;41.60;16.40
44121;DHT22;29783;52.504;13.478;2022-08-11T14:26:28;41.10;16.50
44121;DHT22;29783;52.504;13.478;2022-08-11T14:29:04;40.30;17.20
44121;DHT22;29783;52.504;13.478;2022-08-11T14:31:31;40.60;16.80
44121;DHT22;29783;52.504;13.478;2022-08-11T14:34:04;40.50;17.00
44121;DHT22;29783;52.504;13.478;2022-08-11T14:36:36;40.40;17.10
44121;DHT22;29783;52.504;13.478;2022-08-11T14:39:06;40.50;17.20
44121;DHT22;29783;52.504;13.478;2022-08-11T14:41:33;41.80;16.00
44121;DHT22;29783;52.504;13.478;2022-08-11T14:44:19;41.10;16.50
44121;DHT22;29783;52.504;13.478;2022-08-11T14:47:05;40.10;17.20
44121;DHT22;29783;52.504;13.478;2022-08-11T14:49:35;40.50;16.70
44121;DHT22;29783;52.504;13.478;2022-08-11T14:52:06;40.10;17.20
44121;DHT22;29783;52.504;13.478;2022-08-11T14:54:33;41.00;16.50
44121;DHT22;29783;52.504;13.478;2022-08-11T14:57:19;40.60;16.50
44121;DHT22;29783;52.504;13.478;2022-08-11T14:59:48;40.30;16.70
44121;DHT22;29783;52.504;13.478;2022-08-11T15:02:14;40.10;16.80
44121;DHT22;29783;52.504;13.478;2022-08-11T15:05:00;40.90;16.20
44121;DHT22;29783;52.504;13.478;2022-08-11T15:07:27;40.30;16.40
44121;DHT22;29783;52.504;13.478;2022-08-11T15:09:58;40.20;17.00
44121;DHT22;29783;52.504;13.478;2022-08-11T15:12:24;39.90;17.20
44121;DHT22;29783;52.504;13.478;2022-08-11T15:14:50;40.40;16.50
44121;DHT22;29783;52.504;13.478;2022-08-11T15:17:36;40.30;16.50
44121;DHT22;29783;52.504;13.478;2022-08-11T15:20:08;40.60;16.60
44121;DHT22;29783;52.504;13.478;2022-08-11T15:22:54;40.50;16.50
44121;DHT22;29783;52.504;13.478;2022-08-11T15:25:42;40.80;16.40
44121;DHT22;29783;52.504;13.478;2022-08-11T15:28:11;40.90;16.20
44121;DHT22;29783;52.504;13.478;2022-08-11T15:30:58;41.00;16.10
44121;DHT22;29783;52.504;13.478;2022-08-11T15:33:44;41.20;15.80
44121;DHT22;29783;52.504;13.478;2022-08-11T15:36:29;41.00;16.10
44121;DHT22;29783;52.504;13.478;2022-08-11T15:39:26;40.60;15.90
44121;DHT22;29783;52.504;13.478;2022-08-11T15:44:46;39.90;16.10
44121;DHT22;29783;52.504;13.478;2022-08-11T15:47:53;40.60;15.90
44121;DHT22;29783;52.504;13.478;2022-08-11T15:50:26;41.10;15.30
44121;DHT22;29783;52.504;13.478;2022-08-11T15:53:05;41.10;15.50
44121;DHT22;29783;52.504;13.478;2022-08-11T15:55:34;40.10;15.80
44121;DHT22;29783;52.504;13.478;2022-08-11T15:58:03;40.00;15.70
44121;DHT22;29783;52.504;13.478;2022-08-11T16:00:50;40.10;16.00
44121;DHT22;29783;52.504;13.478;2022-08-11T16:03:56;40.30;15.90
44121;DHT22;29783;52.504;13.478;2022-08-11T16:09:14;40.60;15.30
44121;DHT22;29783;52.504;13.478;2022-08-11T16:11:41;40.50;15.20
44121;DHT22;29783;52.504;13.478;2022-08-11T16:14:10;40.00;15.40
44121;DHT22;29783;52.504;13.478;2022-08-11T16:16:56;39.00;16.40
44121;DHT22;29783;52.504;13.478;2022-08-11T16:19:25;38.90;16.50
44121;DHT22;29783;52.504;13.478;2022-08-11T16:21:51;38.70;16.60
44121;DHT22;29783;52.504;13.478;2022-08-11T16:24:19;38.50;16.70
44121;DHT22;29783;52.504;13.478;2022-08-11T16:26:48;38.60;16.60
44121;DHT22;29783;52.504;13.478;2022-08-11T16:29:15;38.90;16.30
44121;DHT22;29783;52.504;13.478;2022-08-11T16:31:42;38.70;16.60
44121;DHT22;29783;52.504;13.478;2022-08-11T16:34:29;38.50;16.80
44121;DHT22;29783;52.504;13.478;2022-08-11T16:37:14;37.70;17.30
44121;DHT22;29783;52.504;13.478;2022-08-11T16:40:10;37.10;17.90
44121;DHT22;29783;52.504;13.478;2022-08-11T16:42:37;36.70;17.60
44121;DHT22;29783;52.504;13.478;2022-08-11T16:45:21;37.10;17.60
44121;DHT22;29783;52.504;13.478;2022-08-11T16:48:07;37.30;17.50
44121;DHT22;29783;52.504;13.478;2022-08-11T16:50:33;37.80;17.40
44121;DHT22;29783;52.504;13.478;2022-08-11T16:53:00;38.00;17.00
44121;DHT22;29783;52.504;13.478;2022-08-11T16:55:27;37.70;17.50
44121;DHT22;29783;52.504;13.478;2022-08-11T16:57:58;37.30;18.10
44121;DHT22;29783;52.504;13.478;2022-08-11T17:00:44;37.10;18.40
44121;DHT22;29783;52.504;13.478;2022-08-11T17:03:12;37.10;17.70
44121;DHT22;29783;52.504;13.478;2022-08-11T17:05:57;37.10;17.40
44121;DHT22;29783;52.504;13.478;2022-08-11T17:08:49;37.40;17.40
44121;DHT22;29783;52.504;13.478;2022-08-11T17:11:55;36.80;18.10
44121;DHT22;29783;52.504;13.478;2022-08-11T17:14:44;36.80;18.00
44121;DHT22;29783;52.504;13.478;2022-08-11T17:17:14;36.70;18.30
44121;DHT22;29783;52.504;13.478;2022-08-11T17:19:48;36.80;18.30
44121;DHT22;29783;52.504;13.478;2022-08-11T17:22:15;36.10;18.70
44121;DHT22;29783;52.504;13.478;2022-08-11T17:25:02;36.20;19.10
44121;DHT22;29783;52.504;13.478;2022-08-11T17:27:31;35.70;19.40
44121;DHT22;29783;52.504;13.478;2022-08-11T17:29:58;35.80;19.10
44121;DHT22;29783;52.504;13.478;2022-08-11T17:32:37;35.20;19.60
44121;DHT22;29783;52.504;13.478;2022-08-11T17:35:25;34.40;20.30
44121;DHT22;29783;52.504;13.478;2022-08-11T17:38:03;34.50;20.40
44121;DHT22;29783;52.504;13.478;2022-08-11T17:40:32;34.30;20.60
44121;DHT22;29783;52.504;13.478;2022-08-11T17:43:01;33.50;21.10
44121;DHT22;29783;52.504;13.478;2022-08-11T17:45:46;32.60;21.90
44121;DHT22;29783;52.504;13.478;2022-08-11T17:48:40;31.70;22.90
44121;DHT22;29783;52.504;13.478;2022-08-11T17:51:09;31.10;23.60
44121;DHT22;29783;52.504;13.478;2022-08-11T17:53:42;30.70;23.90
44121;DHT22;29783;52.504;13.478;2022-08-11T17:56:30;30.30;24.70
44121;DHT22;29783;52.504;13.478;2022-08-11T17:59:16;29.90;25.20
44121;DHT22;29783;52.504;13.478;2022-08-11T18:02:02;29.40;25.90
44121;DHT22;29783;52.504;13.478;2022-08-11T18:04:49;29.20;26.00
44121;DHT22;29783;52.504;13.478;2022-08-11T18:07:21;28.80;26.50
44121;DHT22;29783;52.504;13.478;2022-08-11T18:10:07;28.60;26.70
44121;DHT22;29783;52.504;13.478;2022-08-11T18:12:54;28.50;27.10
44121;DHT22;29783;52.504;13.478;2022-08-11T18:15:42;28.30;27.50
44121;DHT22;29783;52.504;13.478;2022-08-11T18:18:27;28.10;27.90
44121;DHT22;29783;52.504;13.478;2022-08-11T18:21:16;27.90;28.20
44121;DHT22;29783;52.504;13.478;2022-08-11T18:24:06;27.70;28.60
44121;DHT22;29783;52.504;13.478;2022-08-11T18:26:51;27.50;28.80
44121;DHT22;29783;52.504;13.478;2022-08-11T18:29:39;27.40;29.40
44121;DHT22;29783;52.504;13.478;2022-08-11T18:32:26;27.10;29.40
44121;DHT22;29783;52.504;13.478;2022-08-11T18:35:11;27.00;29.50
44121;DHT22;29783;52.504;13.478;2022-08-11T18:37:58;26.70;29.90
44121;DHT22;29783;52.504;13.478;2022-08-11T18:40:44;26.50;30.30
44121;DHT22;29783;52.504;13.478;2022-08-11T18:43:31;26.30;30.70
44121;DHT22;29783;52.504;13.478;2022-08-11T18:46:18;26.20;31.40
44121;DHT22;29783;52.504;13.478;2022-08-11T18:49:18;26.00;31.10
44121;DHT22;29783;52.504;13.478;2022-08-11T18:52:05;25.80;31.40
44121;DHT22;29783;52.504;13.478;2022-08-11T18:54:53;25.70;31.90
44121;DHT22;29783;52.504;13.478;2022-08-11T18:57:41;25.50;32.00
44121;DHT22;29783;52.504;13.478;2022-08-11T19:00:27;25.40;32.40
44121;DHT22;29783;52.504;13.478;2022-08-11T19:03:13;25.20;32.60
44121;DHT22;29783;52.504;13.478;2022-08-11T19:06:01;25.10;32.80
44121;DHT22;29783;52.504;13.478;2022-08-11T19:08:52;25.00;32.90
44121;DHT22;29783;52.504;13.478;2022-08-11T19:11:38;24.90;33.60
44121;DHT22;29783;52.504;13.478;2022-08-11T19:14:25;24.70;34.00
44121;DHT22;29783;52.504;13.478;2022-08-11T19:17:11;24.70;34.70
44121;DHT22;29783;52.504;13.478;2022-08-11T19:19:57;24.50;34.70
44121;DHT22;29783;52.504;13.478;2022-08-11T19:22:44;24.40;34.70
44121;DHT22;29783;52.504;13.478;2022-08-11T19:25:30;24.20;35.00
44121;DHT22;29783;52.504;13.478;2022-08-11T19:28:16;24.20;35.40
44121;DHT22;29783;52.504;13.478;2022-08-11T19:31:01;24.10;35.90
44121;DHT22;29783;52.504;13.478;2022-08-11T19:33:47;24.00;36.10
44121;DHT22;29783;52.504;13.478;2022-08-11T19:36:32;23.90;36.10
44121;DHT22;29783;52.504;13.478;2022-08-11T19:39:18;23.80;36.50
44121;DHT22;29783;52.504;13.478;2022-08-11T19:42:06;23.70;37.00
44121;DHT22;29783;52.504;13.478;2022-08-11T19:44:52;23.60;36.80
44121;DHT22;29783;52.504;13.478;2022-08-11T19:47:36;23.60;36.80